Station Historical Data
Daily Summary for November 29, 2017 Units:  English    Metric   Both
« Previous Day
Next Day »
Daily Weekly Monthly Yearly Custom
  High: Low: Average:
Temperature: 65.0 °F 45.2 °F 52.7 °F
Dew Point: 56.7 °F 36.9 °F 48.3 °F
Humidity: 93% 71% 85%
Wind Speed: 2.3mph 0.0mph 0.3mph
Wind Gust: 2.3mph - -
Wind- - West
Pressure: 30.36 in 30.24 in -
Precipitation: 0.00 in    
Historical Graphs
 
 
Tabular Data for November 29, 2017
Time Temperature Dew Point Pressure Wind Wind Speed Wind Gust Humidity Rainfall Rate (Hourly) Conditions
00:00 46.5 °F 38.7 °F 30.36 in Calm     74% 0.00 in CLR
00:05 46.2 °F 38.4 °F 30.36 in Calm     74% 0.00 in CLR
00:10 45.9 °F 38.4 °F 30.35 in Calm     75% 0.00 in CLR
00:21 45.7 °F 37.9 °F 30.36 in Calm     74% 0.00 in CLR
00:26 46.0 °F 37.8 °F 30.35 in Calm     73% 0.00 in CLR
00:31 46.1 °F 37.9 °F 30.36 in Calm     73% 0.00 in CLR
00:36 46.4 °F 37.9 °F 30.36 in Calm     72% 0.00 in CLR
00:41 46.5 °F 38.7 °F 30.36 in Calm     74% 0.00 in CLR
00:46 46.5 °F 38.0 °F 30.35 in Calm     72% 0.00 in CLR
00:51 46.6 °F 38.4 °F 30.35 in Calm     73% 0.00 in CLR
00:56 46.4 °F 37.9 °F 30.35 in Calm     72% 0.00 in CLR
01:01 46.3 °F 38.1 °F 30.35 in Calm     73% 0.00 in CLR
01:06 46.1 °F 37.9 °F 30.35 in Calm     73% 0.00 in CLR
01:11 45.9 °F 37.7 °F 30.35 in Calm     73% 0.00 in CLR
01:16 45.8 °F 37.3 °F 30.35 in Calm     72% 0.00 in CLR
01:22 45.8 °F 37.3 °F 30.35 in Calm     72% 0.00 in CLR
01:27 45.8 °F 37.3 °F 30.35 in Calm     72% 0.00 in CLR
01:32 45.8 °F 36.9 °F 30.35 in Calm     71% 0.00 in CLR
01:37 45.7 °F 37.2 °F 30.35 in Calm     72% 0.00 in CLR
01:42 45.6 °F 37.1 °F 30.36 in Calm     72% 0.00 in CLR
01:47 45.5 °F 37.3 °F 30.36 in Calm     73% 0.00 in CLR
01:52 45.4 °F 37.2 °F 30.35 in Calm     73% 0.00 in FEW
01:57 45.2 °F 37.1 °F 30.36 in Calm     73% 0.00 in FEW
02:02 45.2 °F 37.1 °F 30.36 in Calm     73% 0.00 in FEW
02:12 45.2 °F 37.1 °F 30.35 in Calm     73% 0.00 in FEW
02:17 45.2 °F 37.1 °F 30.35 in Calm     73% 0.00 in FEW
02:28 45.5 °F 37.7 °F 30.35 in Calm     74% 0.00 in SCT
02:33 45.6 °F 38.5 °F 30.35 in Calm     76% 0.00 in SCT
02:43 45.7 °F 38.2 °F 30.36 in Calm     75% 0.00 in SCT
02:48 45.8 °F 38.0 °F 30.35 in Calm     74% 0.00 in SCT
02:53 45.9 °F 38.8 °F 30.35 in Calm     76% 0.00 in OVC
03:08 46.6 °F 38.8 °F 30.35 in Calm     74% 0.00 in OVC
03:13 46.9 °F 39.4 °F 30.36 in Calm     75% 0.00 in OVC
03:18 47.1 °F 39.6 °F 30.35 in Calm     75% 0.00 in OVC
03:23 47.3 °F 39.4 °F 30.35 in Calm     74% 0.00 in BKN
03:29 47.5 °F 40.3 °F 30.35 in Calm     76% 0.00 in BKN
03:34 47.9 °F 41.4 °F 30.35 in Calm     78% 0.00 in BKN
03:44 48.3 °F 42.7 °F 30.35 in Calm     81% 0.00 in OVC
03:49 48.3 °F 43.4 °F 30.35 in Calm     83% 0.00 in OVC
03:59 48.3 °F 43.7 °F 30.35 in Calm     84% 0.00 in OVC
04:04 48.3 °F 43.7 °F 30.35 in Calm     84% 0.00 in OVC
04:09 48.3 °F 43.7 °F 30.34 in Calm     84% 0.00 in OVC
04:14 48.2 °F 43.6 °F 30.34 in Calm     84% 0.00 in OVC
04:25 48.1 °F 43.8 °F 30.34 in Calm     85% 0.00 in OVC
04:35 48.1 °F 44.1 °F 30.34 in Calm     86% 0.00 in OVC
04:40 47.9 °F 44.2 °F 30.34 in Calm     87% 0.00 in OVC
04:45 47.8 °F 44.4 °F 30.34 in Calm     88% 0.00 in OVC
04:55 47.7 °F 44.6 °F 30.34 in Calm     89% 0.00 in OVC
05:00 47.7 °F 44.6 °F 30.34 in Calm     89% 0.00 in OVC
05:05 47.7 °F 44.6 °F 30.34 in Calm     89% 0.00 in OVC
05:10 47.7 °F 44.9 °F 30.34 in Calm     90% 0.00 in OVC
05:15 47.8 °F 45.0 °F 30.34 in Calm     90% 0.00 in OVC
05:20 47.8 °F 45.0 °F 30.34 in Calm     90% 0.00 in OVC
05:25 47.8 °F 45.0 °F 30.34 in Calm     90% 0.00 in OVC
05:30 47.8 °F 45.0 °F 30.34 in Calm     90% 0.00 in OVC
05:36 47.9 °F 45.4 °F 30.34 in Calm     91% 0.00 in OVC
05:41 47.9 °F 45.4 °F 30.34 in Calm     91% 0.00 in OVC
05:46 47.9 °F 45.4 °F 30.34 in Calm     91% 0.00 in OVC
05:51 47.9 °F 45.4 °F 30.34 in Calm     91% 0.00 in OVC
05:54 48.0 °F 45.5 °F 30.34 in Calm     91% 0.00 in OVC
05:59 48.0 °F 45.5 °F 30.35 in Calm     91% 0.00 in OVC
06:04 48.0 °F 45.5 °F 30.35 in Calm     91% 0.00 in
06:10 48.1 °F 45.6 °F 30.35 in Calm     91% 0.00 in
06:15 48.1 °F 45.6 °F 30.34 in Calm     91% 0.00 in
06:20 48.1 °F 45.6 °F 30.34 in Calm     91% 0.00 in CLR
06:25 48.1 °F 45.6 °F 30.34 in Calm     91% 0.00 in CLR
06:30 48.2 °F 45.7 °F 30.35 in Calm     91% 0.00 in
06:34 48.2 °F 45.7 °F 30.35 in Calm     91% 0.00 in
06:39 48.2 °F 46.0 °F 30.35 in Calm     92% 0.00 in
06:49 48.3 °F 46.1 °F 30.35 in Calm     92% 0.00 in
06:54 48.4 °F 46.2 °F 30.35 in Calm     92% 0.00 in
06:59 48.4 °F 46.2 °F 30.35 in Calm     92% 0.00 in
07:04 48.4 °F 46.2 °F 30.35 in Calm     92% 0.00 in
07:09 48.5 °F 46.3 °F 30.35 in Calm     92% 0.00 in
07:14 48.5 °F 46.3 °F 30.35 in Calm     92% 0.00 in -DZ
07:19 48.6 °F 46.4 °F 30.35 in Calm     92% 0.00 in -DZ
07:25 48.7 °F 46.5 °F 30.35 in Calm     92% 0.00 in -DZ
07:30 48.8 °F 46.6 °F 30.35 in Calm     92% 0.00 in -DZ
07:40 48.9 °F 46.7 °F 30.35 in Calm     92% 0.00 in -DZ
07:45 49.0 °F 46.8 °F 30.35 in Calm     92% 0.00 in -DZ
07:50 49.1 °F 46.9 °F 30.35 in Calm     92% 0.00 in -DZ
07:55 49.2 °F 47.0 °F 30.35 in Calm     92% 0.00 in -DZ
08:00 49.3 °F 47.1 °F 30.35 in Calm     92% 0.00 in -DZ
08:05 49.4 °F 47.2 °F 30.35 in Calm     92% 0.00 in
08:10 49.5 °F 47.3 °F 30.36 in Calm     92% 0.00 in
08:15 49.5 °F 47.6 °F 30.36 in Calm     93% 0.00 in
08:20 49.7 °F 47.8 °F 30.36 in Calm     93% 0.00 in
08:25 49.7 °F 47.8 °F 30.36 in Calm     93% 0.00 in
08:31 49.8 °F 47.9 °F 30.35 in Calm     93% 0.00 in
08:36 49.8 °F 47.9 °F 30.35 in Calm     93% 0.00 in
08:41 50.0 °F 48.1 °F 30.35 in Calm     93% 0.00 in
08:46 50.2 °F 48.3 °F 30.35 in Calm     93% 0.00 in
08:51 50.4 °F 48.5 °F 30.35 in Calm     93% 0.00 in
08:56 50.5 °F 48.6 °F 30.35 in Calm     93% 0.00 in
09:01 50.6 °F 48.7 °F 30.35 in Calm     93% 0.00 in
09:06 50.8 °F 48.8 °F 30.35 in Calm     93% 0.00 in
09:11 50.9 °F 48.9 °F 30.35 in Calm     93% 0.00 in
09:16 51.1 °F 49.1 °F 30.36 in WNW 1.2 mph   93% 0.00 in
09:21 51.3 °F 49.3 °F 30.36 in WNW 1.2 mph   93% 0.00 in
09:26 51.5 °F 49.5 °F 30.36 in Calm     93% 0.00 in
09:57 52.8 °F 50.8 °F 30.36 in Calm     93% 0.00 in
10:02 53.0 °F 51.0 °F 30.36 in WNW 1.2 mph   93% 0.00 in
10:12 53.5 °F 51.5 °F 30.36 in Calm     93% 0.00 in
10:17 53.6 °F 51.6 °F 30.35 in WNW 1.2 mph   93% 0.00 in
10:22 53.7 °F 51.7 °F 30.35 in WNW 1.2 mph   93% 0.00 in
10:27 53.7 °F 51.7 °F 30.35 in WNW 1.2 mph   93% 0.00 in
10:32 53.9 °F 51.9 °F 30.35 in Calm     93% 0.00 in
10:37 54.0 °F 52.0 °F 30.35 in Calm     93% 0.00 in
10:48 53.9 °F 51.6 °F 30.35 in WNW 1.2 mph   92% 0.00 in
10:53 53.8 °F 51.5 °F 30.35 in WNW 1.2 mph 1.2 mph 92% 0.00 in
10:58 53.8 °F 51.5 °F 30.35 in WNW 1.2 mph   92% 0.00 in
11:03 53.9 °F 51.6 °F 30.35 in WNW 1.2 mph   92% 0.00 in
11:13 54.4 °F 52.4 °F 30.35 in West 1.2 mph   93% 0.00 in
11:18 54.5 °F 52.5 °F 30.36 in WSW 1.2 mph   93% 0.00 in
11:28 54.9 °F 52.9 °F 30.35 in West 1.2 mph   93% 0.00 in OVC
11:33 54.9 °F 52.6 °F 30.35 in West 1.2 mph   92% 0.00 in OVC
11:38 54.9 °F 52.6 °F 30.35 in West 1.2 mph   92% 0.00 in OVC
11:43 55.0 °F 52.7 °F 30.35 in West 1.2 mph   92% 0.00 in OVC
11:48 55.0 °F 52.7 °F 30.34 in West 1.2 mph   92% 0.00 in OVC
11:54 55.3 °F 53.0 °F 30.34 in Calm     92% 0.00 in OVC
12:04 55.6 °F 53.0 °F 30.34 in Calm     91% 0.00 in OVC
12:14 55.9 °F 53.3 °F 30.33 in Calm     91% 0.00 in OVC
12:19 56.3 °F 53.7 °F 30.33 in Calm     91% 0.00 in OVC
12:29 56.7 °F 53.8 °F 30.33 in Calm     90% 0.00 in OVC
12:34 56.9 °F 53.7 °F 30.33 in Calm     89% 0.00 in OVC
12:55 57.6 °F 54.1 °F 30.31 in Calm     88% 0.00 in OVC
13:05 58.3 °F 54.4 °F 30.31 in NW 1.2 mph   87% 0.00 in OVC
13:15 59.2 °F 55.0 °F 30.30 in WNW 1.2 mph   86% 0.00 in OVC
13:35 59.8 °F 55.3 °F 30.29 in WNW 1.2 mph   85% 0.00 in OVC
13:40 60.3 °F 55.8 °F 30.29 in WNW 1.2 mph   85% 0.00 in OVC
13:45 60.9 °F 55.7 °F 30.29 in WNW 1.2 mph 1.2 mph 83% 0.00 in OVC
13:50 61.0 °F 55.5 °F 30.28 in WNW 2.3 mph 2.3 mph 82% 0.00 in OVC
13:55 61.1 °F 55.6 °F 30.28 in WNW 2.3 mph 2.3 mph 82% 0.00 in BKN
14:01 61.3 °F 55.8 °F 30.28 in WNW 2.3 mph   82% 0.00 in BKN
14:06 61.5 °F 56.0 °F 30.28 in WNW 2.3 mph   82% 0.00 in BKN
14:16 62.1 °F 55.9 °F 30.27 in WNW 1.2 mph   80% 0.00 in BKN
14:21 62.4 °F 56.1 °F 30.27 in WNW 1.2 mph 1.2 mph 80% 0.00 in SCT
14:31 62.7 °F 56.1 °F 30.27 in WNW 1.2 mph   79% 0.00 in SCT
14:37 63.1 °F 56.5 °F 30.27 in WNW 1.2 mph   79% 0.00 in SCT
14:42 63.6 °F 56.6 °F 30.27 in WNW 1.2 mph   78% 0.00 in SCT
14:52 64.1 °F 56.4 °F 30.27 in WNW 1.2 mph   76% 0.00 in SCT
14:57 64.3 °F 56.6 °F 30.26 in NE 2.3 mph   76% 0.00 in SCT
15:02 64.8 °F 56.7 °F 30.26 in ESE 2.3 mph   75% 0.00 in SCT
15:07 65.0 °F 56.5 °F 30.26 in ESE 1.2 mph 1.2 mph 74% 0.00 in SCT
15:12 64.8 °F 55.9 °F 30.26 in WNW 1.2 mph   73% 0.00 in FEW
15:22 64.7 °F 55.8 °F 30.26 in WNW 1.2 mph   73% 0.00 in FEW
15:27 64.5 °F 55.3 °F 30.26 in WNW 1.2 mph 1.2 mph 72% 0.00 in FEW
15:32 64.4 °F 55.6 °F 30.25 in West 1.2 mph   73% 0.00 in FEW
15:37 64.4 °F 55.9 °F 30.25 in West 1.2 mph   74% 0.00 in FEW
15:42 64.5 °F 55.3 °F 30.26 in Calm     72% 0.00 in FEW
15:53 64.3 °F 55.1 °F 30.25 in WNW 1.2 mph   72% 0.00 in FEW
15:58 64.2 °F 55.4 °F 30.25 in WNW 1.2 mph   73% 0.00 in FEW
16:03 64.0 °F 55.5 °F 30.25 in WNW 1.2 mph   74% 0.00 in FEW
16:08 63.7 °F 55.3 °F 30.25 in Calm     74% 0.00 in FEW
16:13 63.6 °F 55.2 °F 30.25 in Calm     74% 0.00 in FEW
16:23 63.3 °F 55.2 °F 30.25 in Calm     75% 0.00 in FEW
16:33 63.0 °F 54.9 °F 30.25 in Calm     75% 0.00 in FEW
16:38 62.8 °F 54.8 °F 30.25 in Calm     75% 0.00 in FEW
16:48 62.3 °F 54.6 °F 30.25 in Calm     76% 0.00 in FEW
16:59 61.7 °F 54.8 °F 30.25 in Calm     78% 0.00 in FEW
17:04 61.5 °F 54.6 °F 30.24 in Calm     78% 0.00 in FEW
17:09 61.3 °F 54.4 °F 30.24 in Calm     78% 0.00 in FEW
17:24 60.3 °F 53.8 °F 30.25 in Calm     79% 0.00 in FEW
17:29 59.9 °F 53.7 °F 30.25 in Calm     80% 0.00 in FEW
17:34 59.5 °F 53.7 °F 30.25 in Calm     81% 0.00 in FEW
17:39 59.2 °F 53.4 °F 30.25 in Calm     81% 0.00 in FEW
17:44 58.9 °F 53.1 °F 30.25 in Calm     81% 0.00 in FEW
17:49 58.6 °F 53.1 °F 30.25 in Calm     82% 0.00 in FEW
17:55 58.3 °F 53.2 °F 30.25 in Calm     83% 0.00 in FEW
18:00 58.0 °F 52.9 °F 30.25 in Calm     83% 0.00 in FEW
18:05 57.8 °F 53.3 °F 30.25 in Calm     85% 0.00 in FEW
18:10 57.5 °F 52.7 °F 30.25 in Calm     84% 0.00 in FEW
18:20 57.2 °F 53.0 °F 30.26 in Calm     86% 0.00 in FEW
18:25 57.0 °F 52.9 °F 30.26 in Calm     86% 0.00 in FEW
18:30 56.7 °F 52.6 °F 30.26 in Calm     86% 0.00 in FEW
18:35 56.5 °F 52.4 °F 30.26 in Calm     86% 0.00 in FEW
18:40 56.2 °F 52.4 °F 30.26 in Calm     87% 0.00 in FEW
18:49 55.8 °F 52.0 °F 30.27 in Calm     87% 0.00 in FEW
18:59 55.3 °F 51.8 °F 30.27 in Calm     88% 0.00 in FEW
19:04 55.1 °F 51.6 °F 30.27 in Calm     88% 0.00 in FEW
19:09 54.9 °F 51.4 °F 30.27 in Calm     88% 0.00 in FEW
19:24 54.5 °F 51.3 °F 30.27 in Calm     89% 0.00 in FEW
19:29 54.4 °F 51.5 °F 30.27 in Calm     90% 0.00 in FEW
19:35 54.2 °F 51.3 °F 30.27 in Calm     90% 0.00 in FEW
19:45 53.9 °F 51.0 °F 30.27 in Calm     90% 0.00 in FEW
19:50 53.9 °F 51.0 °F 30.27 in Calm     90% 0.00 in FEW
20:00 53.6 °F 50.7 °F 30.27 in Calm     90% 0.00 in FEW
20:05 53.5 °F 50.6 °F 30.27 in Calm     90% 0.00 in FEW
20:10 53.3 °F 50.4 °F 30.27 in Calm     90% 0.00 in FEW
20:15 53.2 °F 50.6 °F 30.27 in Calm     91% 0.00 in FEW
20:20 53.2 °F 50.6 °F 30.28 in Calm     91% 0.00 in FEW
20:25 53.3 °F 50.7 °F 30.27 in Calm     91% 0.00 in FEW
20:30 53.3 °F 50.7 °F 30.27 in Calm     91% 0.00 in FEW
20:40 53.0 °F 50.4 °F 30.27 in Calm     91% 0.00 in FEW
20:46 53.7 °F 51.7 °F 30.27 in Calm     93% 0.00 in FEW
20:56 54.0 °F 51.7 °F 30.27 in Calm     92% 0.00 in FEW
21:01 53.6 °F 51.0 °F 30.27 in Calm     91% 0.00 in SCT
21:06 53.3 °F 50.7 °F 30.27 in Calm     91% 0.00 in SCT
21:11 52.9 °F 50.3 °F 30.26 in Calm     91% 0.00 in SCT
21:16 52.6 °F 50.0 °F 30.26 in Calm     91% 0.00 in SCT
21:21 52.3 °F 49.8 °F 30.26 in Calm     91% 0.00 in SCT
21:26 52.2 °F 49.7 °F 30.26 in Calm     91% 0.00 in SCT
21:36 52.3 °F 50.0 °F 30.26 in Calm     92% 0.00 in SCT
21:41 52.3 °F 50.0 °F 30.26 in Calm     92% 0.00 in SCT
21:46 52.1 °F 49.8 °F 30.26 in Calm     92% 0.00 in SCT
21:51 52.0 °F 49.7 °F 30.26 in Calm     92% 0.00 in FEW
21:57 51.8 °F 49.5 °F 30.26 in Calm     92% 0.00 in FEW
22:02 51.6 °F 49.1 °F 30.26 in Calm     91% 0.00 in BKN
22:07 51.7 °F 49.5 °F 30.26 in Calm     92% 0.00 in BKN
22:12 51.8 °F 49.5 °F 30.26 in Calm     92% 0.00 in BKN
22:17 51.8 °F 49.5 °F 30.26 in Calm     92% 0.00 in BKN
22:27 51.6 °F 49.4 °F 30.26 in Calm     92% 0.00 in BKN
22:32 51.5 °F 49.3 °F 30.26 in Calm     92% 0.00 in BKN
22:37 51.4 °F 49.2 °F 30.26 in Calm     92% 0.00 in BKN
22:42 51.3 °F 49.1 °F 30.26 in Calm     92% 0.00 in BKN
22:47 51.1 °F 48.9 °F 30.26 in Calm     92% 0.00 in BKN
22:57 50.8 °F 48.6 °F 30.26 in Calm     92% 0.00 in OVC
23:08 50.6 °F 48.4 °F 30.25 in Calm     92% 0.00 in OVC
23:18 50.5 °F 48.3 °F 30.25 in Calm     92% 0.00 in OVC
23:23 50.5 °F 48.3 °F 30.25 in Calm     92% 0.00 in
23:33 50.4 °F 48.2 °F 30.25 in Calm     92% 0.00 in
Piedmont Bend
Compliments of Weather Underground - 4 mb